createdAt,value
2017-12-24T00:02:03.453Z,36.57
2017-12-24T00:04:34.818Z,37.03
2017-12-24T00:07:05.788Z,35.53
2017-12-24T00:09:36.377Z,29.57
2017-12-24T00:12:07.200Z,33.30
2017-12-24T00:14:38.049Z,34.93
2017-12-24T00:17:08.258Z,38.10
2017-12-24T00:19:38.900Z,32.80
2017-12-24T00:22:10.076Z,28.97
2017-12-24T00:24:42.336Z,33.53
2017-12-24T00:27:14.145Z,29.17
2017-12-24T00:29:44.638Z,22.30
2017-12-24T00:32:15.297Z,33.20
2017-12-24T00:34:45.822Z,31.80
2017-12-24T00:37:17.240Z,28.20
2017-12-24T00:39:47.701Z,27.57
2017-12-24T00:42:17.964Z,27.40
2017-12-24T00:44:49.244Z,28.33
2017-12-24T00:47:20.108Z,26.30
2017-12-24T00:49:50.710Z,28.63
2017-12-24T00:52:20.908Z,27.37
2017-12-24T00:54:52.413Z,24.63
2017-12-24T00:57:23.088Z,34.10
2017-12-24T00:59:53.750Z,26.90
2017-12-24T01:02:24.236Z,32.07
2017-12-24T01:04:55.612Z,27.20
2017-12-24T01:07:26.420Z,28.47
2017-12-24T01:09:57.049Z,32.97
2017-12-24T01:12:28.682Z,27.87
2017-12-24T01:14:58.939Z,28.90
2017-12-24T01:17:29.523Z,31.30
2017-12-24T01:20:00.039Z,32.07
2017-12-24T01:22:30.696Z,30.40
2017-12-24T01:25:01.349Z,30.97
2017-12-24T01:27:32.881Z,31.07
2017-12-24T01:30:03.614Z,34.17
2017-12-24T01:32:33.792Z,34.43
2017-12-24T01:35:04.525Z,26.10
2017-12-24T01:37:34.883Z,27.93
2017-12-24T01:40:06.190Z,28.67
2017-12-24T01:42:36.659Z,28.30
2017-12-24T01:45:07.465Z,30.57
2017-12-24T01:47:47.381Z,25.90
2017-12-24T01:50:18.558Z,26.70
2017-12-24T01:52:49.308Z,27.97
2017-12-24T01:55:19.629Z,23.70
2017-12-24T01:57:50.269Z,26.03
2017-12-24T02:00:20.850Z,29.60
2017-12-24T02:02:51.604Z,31.77
2017-12-24T02:05:22.057Z,30.47
2017-12-24T02:07:52.581Z,29.30
2017-12-24T02:10:23.589Z,29.20
2017-12-24T02:12:54.039Z,27.17
2017-12-24T02:15:25.148Z,33.63
2017-12-24T02:17:55.758Z,30.47
2017-12-24T02:20:26.836Z,33.80
2017-12-24T02:22:57.540Z,29.73
2017-12-24T02:25:29.431Z,32.10
2017-12-24T02:27:59.888Z,29.63
2017-12-24T02:30:35.404Z,27.10
2017-12-24T02:33:05.920Z,31.20
2017-12-24T02:35:36.497Z,30.50
2017-12-24T02:38:06.852Z,24.17
2017-12-24T02:40:38.068Z,21.07
2017-12-24T02:43:08.309Z,23.37
2017-12-24T02:45:38.908Z,25.97
2017-12-24T02:48:10.401Z,28.70
2017-12-24T02:50:41.912Z,32.97
2017-12-24T02:53:12.392Z,24.67
2017-12-24T02:55:43.601Z,37.37
2017-12-24T02:58:14.516Z,22.37
2017-12-24T03:00:45.276Z,25.13
2017-12-24T03:03:15.527Z,23.60
2017-12-24T03:05:46.520Z,26.50
2017-12-24T03:08:17.390Z,24.60
2017-12-24T03:10:49.240Z,25.70
2017-12-24T03:13:20.511Z,22.40
2017-12-24T03:15:51.278Z,24.20
2017-12-24T03:18:21.960Z,26.87
2017-12-24T03:20:52.940Z,25.80
2017-12-24T03:23:23.263Z,26.90
2017-12-24T03:25:53.703Z,28.47
2017-12-24T03:28:25.243Z,31.13
2017-12-24T03:30:56.491Z,29.87
2017-12-24T03:33:27.018Z,30.33
2017-12-24T03:35:57.859Z,30.50
2017-12-24T03:38:28.982Z,27.20
2017-12-24T03:40:59.390Z,35.23
2017-12-24T03:43:30.127Z,33.73
2017-12-24T03:46:01.029Z,35.23
2017-12-24T03:48:31.805Z,32.97
2017-12-24T03:51:02.425Z,32.27
2017-12-24T03:53:33.292Z,35.47
2017-12-24T03:56:03.980Z,32.07
2017-12-24T03:58:35.231Z,33.17
2017-12-24T04:01:06.510Z,31.40
2017-12-24T04:03:37.421Z,35.13
2017-12-24T04:06:08.164Z,35.23
2017-12-24T04:08:39.473Z,32.53
2017-12-24T04:11:10.864Z,35.10
2017-12-24T04:13:41.331Z,38.10
2017-12-24T04:16:11.962Z,34.80
2017-12-24T04:18:43.111Z,40.00
2017-12-24T04:21:13.998Z,34.10
2017-12-24T04:23:44.832Z,40.70
2017-12-24T04:26:15.169Z,35.10
2017-12-24T04:28:45.905Z,31.30
2017-12-24T04:31:16.723Z,34.37
2017-12-24T04:33:47.444Z,35.30
2017-12-24T04:36:18.041Z,39.60
2017-12-24T04:38:48.519Z,28.03
2017-12-24T04:41:20.093Z,30.50
2017-12-24T04:43:50.779Z,34.33
2017-12-24T04:46:21.894Z,35.27
2017-12-24T04:48:53.071Z,34.70
2017-12-24T04:51:25.553Z,32.17
2017-12-24T04:53:56.303Z,28.20
2017-12-24T04:56:28.468Z,36.43
2017-12-24T04:58:59.124Z,29.90
2017-12-24T05:01:29.917Z,29.57
2017-12-24T05:04:01.179Z,31.53
2017-12-24T05:06:31.991Z,27.00
2017-12-24T05:09:03.277Z,34.27
2017-12-24T05:11:34.342Z,32.53
2017-12-24T05:14:04.681Z,30.97
2017-12-24T05:16:35.751Z,25.63
2017-12-24T05:19:06.841Z,35.20
2017-12-24T05:21:37.651Z,33.43
2017-12-24T05:24:09.528Z,33.40
2017-12-24T05:26:40.444Z,29.67
2017-12-24T05:29:11.706Z,25.80
2017-12-24T05:31:42.543Z,34.57
2017-12-24T05:34:13.377Z,34.43
2017-12-24T05:36:44.468Z,33.17
2017-12-24T05:39:15.859Z,30.47
2017-12-24T05:41:46.779Z,29.10
2017-12-24T05:44:17.943Z,25.60
2017-12-24T05:46:48.430Z,29.97
2017-12-24T05:49:19.526Z,29.63
2017-12-24T05:51:50.268Z,31.13
2017-12-24T05:54:20.759Z,30.63
2017-12-24T05:56:52.290Z,28.87
2017-12-24T05:59:23.075Z,29.03
2017-12-24T06:01:54.212Z,26.60
2017-12-24T06:04:24.839Z,24.47
2017-12-24T06:06:55.448Z,26.23
2017-12-24T06:09:26.064Z,25.33
2017-12-24T06:11:57.459Z,28.77
2017-12-24T06:14:28.057Z,28.83
2017-12-24T06:16:58.619Z,26.03
2017-12-24T06:19:29.935Z,17.93
2017-12-24T06:22:00.908Z,28.80
2017-12-24T06:24:31.428Z,22.37
2017-12-24T06:27:01.828Z,25.70
2017-12-24T06:29:33.087Z,23.27
2017-12-24T06:32:03.752Z,21.17
2017-12-24T06:34:34.030Z,26.40
2017-12-24T06:37:04.496Z,25.63
2017-12-24T06:39:35.221Z,25.00
2017-12-24T06:42:05.957Z,29.37
2017-12-24T06:44:36.380Z,30.60
2017-12-24T06:47:07.003Z,32.30
2017-12-24T06:49:37.636Z,26.20
2017-12-24T06:52:08.659Z,30.27
2017-12-24T06:54:39.196Z,30.20
2017-12-24T06:57:10.428Z,24.27
2017-12-24T06:59:41.898Z,31.67
2017-12-24T07:02:12.670Z,30.80
2017-12-24T07:04:43.365Z,29.93
2017-12-24T07:07:14.099Z,31.53
2017-12-24T07:09:45.016Z,31.37
2017-12-24T07:12:15.770Z,30.53
2017-12-24T07:14:47.527Z,36.90
2017-12-24T07:17:18.044Z,31.87
2017-12-24T07:19:48.442Z,35.33
2017-12-24T07:22:19.537Z,35.10
2017-12-24T07:24:50.129Z,36.63
2017-12-24T07:27:21.276Z,35.13
2017-12-24T07:29:51.997Z,27.77
2017-12-24T07:32:22.980Z,31.27
2017-12-24T07:34:53.499Z,33.90
2017-12-24T07:37:25.240Z,32.77
2017-12-24T07:39:56.091Z,28.23
2017-12-24T07:42:26.940Z,33.67
2017-12-24T07:44:57.263Z,33.67
2017-12-24T07:47:29.153Z,41.23
2017-12-24T07:49:59.549Z,32.30
2017-12-24T07:52:29.828Z,36.03
2017-12-24T07:55:02.283Z,24.40
2017-12-24T07:57:34.076Z,27.60
2017-12-24T08:00:05.897Z,29.70
2017-12-24T08:02:36.608Z,33.43
2017-12-24T08:05:07.304Z,26.57
2017-12-24T08:07:37.741Z,24.97
2017-12-24T08:10:08.798Z,26.63
2017-12-24T08:12:40.239Z,22.63
2017-12-24T08:15:10.950Z,21.40
2017-12-24T08:17:41.289Z,23.23
2017-12-24T08:20:12.116Z,30.53
2017-12-24T08:22:42.721Z,26.30
2017-12-24T08:25:13.012Z,24.50
2017-12-24T08:27:45.266Z,24.50
2017-12-24T08:30:15.998Z,24.10
2017-12-24T08:32:46.834Z,20.27
2017-12-24T08:35:17.255Z,29.50
2017-12-24T08:37:48.080Z,23.13
2017-12-24T08:40:18.359Z,23.00
2017-12-24T08:42:50.109Z,24.30
2017-12-24T08:45:21.638Z,29.20
2017-12-24T08:47:52.169Z,30.23
2017-12-24T08:50:23.008Z,33.97
2017-12-24T08:52:54.970Z,34.97
2017-12-24T08:55:27.465Z,33.47
2017-12-24T08:57:58.996Z,32.20
2017-12-24T09:00:31.049Z,31.03
2017-12-24T09:03:01.840Z,35.53
2017-12-24T09:05:32.785Z,36.07
2017-12-24T09:08:03.522Z,29.63
2017-12-24T09:10:34.280Z,28.40
2017-12-24T09:13:04.845Z,23.83
2017-12-24T09:15:35.963Z,25.33
2017-12-24T09:18:06.313Z,22.23
2017-12-24T09:20:37.704Z,28.87
2017-12-24T09:23:09.492Z,28.57
2017-12-24T09:25:40.301Z,28.93
2017-12-24T09:28:11.109Z,39.70
2017-12-24T09:30:42.656Z,31.63
2017-12-24T09:33:14.168Z,28.00
2017-12-24T09:35:44.621Z,29.53
2017-12-24T09:38:15.623Z,34.23
2017-12-24T09:40:46.467Z,26.70
2017-12-24T09:43:17.053Z,31.83
2017-12-24T09:45:47.863Z,31.83
2017-12-24T09:48:19.494Z,29.90
2017-12-24T09:50:50.221Z,27.43
2017-12-24T09:53:20.728Z,30.67
2017-12-24T09:55:53.155Z,34.50
2017-12-24T09:58:24.156Z,28.47
2017-12-24T10:00:55.077Z,30.10
2017-12-24T10:03:25.925Z,34.80
2017-12-24T10:05:57.047Z,30.43
2017-12-24T10:08:28.411Z,31.43
2017-12-24T10:10:59.488Z,34.23
2017-12-24T10:13:31.396Z,28.50
2017-12-24T10:16:01.908Z,25.17
2017-12-24T10:18:32.530Z,26.40
2017-12-24T10:21:04.207Z,32.77
2017-12-24T10:23:34.944Z,31.03
2017-12-24T10:26:05.576Z,29.27
2017-12-24T10:28:36.223Z,33.63
2017-12-24T10:31:06.860Z,30.10
2017-12-24T10:33:37.447Z,29.13
2017-12-24T10:36:09.065Z,29.50
2017-12-24T10:38:39.661Z,23.50
2017-12-24T10:41:10.575Z,26.40
2017-12-24T10:43:41.607Z,28.47
2017-12-24T10:46:12.988Z,26.60
2017-12-24T10:48:43.463Z,30.77
2017-12-24T10:51:14.013Z,25.50
2017-12-24T10:53:45.369Z,24.33
2017-12-24T10:56:15.721Z,21.77
2017-12-24T10:58:46.142Z,25.23
2017-12-24T11:01:16.493Z,28.57
2017-12-24T11:03:46.888Z,24.93
2017-12-24T11:06:18.856Z,24.20
2017-12-24T11:08:49.417Z,25.13
2017-12-24T11:11:19.884Z,23.43
2017-12-24T11:13:50.921Z,22.33
2017-12-24T11:16:21.510Z,23.27
2017-12-24T11:18:51.949Z,27.17
2017-12-24T11:21:22.574Z,22.87
2017-12-24T11:23:57.405Z,22.03
2017-12-24T11:26:31.432Z,21.20
2017-12-24T11:29:03.340Z,20.73
2017-12-24T11:31:34.076Z,26.23
2017-12-24T11:34:04.708Z,20.37
2017-12-24T11:36:35.325Z,18.43
2017-12-24T11:39:06.248Z,24.37
2017-12-24T11:41:36.688Z,24.50
2017-12-24T11:44:07.351Z,22.03
2017-12-24T11:46:38.006Z,24.77
2017-12-24T11:49:08.364Z,18.53
2017-12-24T11:51:39.232Z,14.53
2017-12-24T11:54:09.767Z,19.83
2017-12-24T11:56:40.242Z,17.50
2017-12-24T11:59:11.448Z,17.13
2017-12-24T12:01:42.535Z,19.87
2017-12-24T12:04:12.958Z,21.03
2017-12-24T12:06:43.440Z,22.07
2017-12-24T12:09:14.756Z,21.53
2017-12-24T12:11:45.398Z,23.43
2017-12-24T12:14:15.902Z,21.80
2017-12-24T12:16:46.547Z,16.60
2017-12-24T12:19:17.484Z,24.60
2017-12-24T12:21:48.251Z,20.43
2017-12-24T12:24:19.228Z,17.80
2017-12-24T12:26:49.804Z,17.20
2017-12-24T12:29:20.196Z,16.93
2017-12-24T12:31:51.602Z,21.20
2017-12-24T12:34:22.451Z,19.33
2017-12-24T12:36:53.246Z,16.90
2017-12-24T12:39:23.679Z,17.60
2017-12-24T12:41:54.728Z,15.30
2017-12-24T12:44:25.615Z,19.67
2017-12-24T12:46:56.905Z,17.00
2017-12-24T12:49:27.819Z,17.60
2017-12-24T12:51:58.321Z,17.17
2017-12-24T12:54:29.888Z,19.17
2017-12-24T12:57:00.321Z,15.37
2017-12-24T12:59:30.819Z,13.73
2017-12-24T13:02:02.051Z,10.17
2017-12-24T13:04:32.910Z,15.17
2017-12-24T13:07:04.155Z,10.37
2017-12-24T13:09:35.296Z,10.97
2017-12-24T13:12:06.400Z,11.10
2017-12-24T13:14:37.112Z,11.97
2017-12-24T13:17:07.466Z,9.90
2017-12-24T13:19:38.376Z,13.23
2017-12-24T13:22:09.012Z,12.30
2017-12-24T13:27:15.714Z,11.10
2017-12-24T13:29:47.260Z,11.20
2017-12-24T13:32:17.988Z,10.67
2017-12-24T13:34:49.488Z,9.63
2017-12-24T13:37:20.734Z,9.67
2017-12-24T13:39:51.436Z,10.77
2017-12-24T13:42:21.878Z,10.43
2017-12-24T13:44:53.123Z,12.67
2017-12-24T13:47:23.588Z,12.57
2017-12-24T13:49:54.009Z,14.10
2017-12-24T13:52:24.868Z,16.67
2017-12-24T13:54:55.579Z,17.97
2017-12-24T13:57:26.807Z,18.40
2017-12-24T13:59:58.565Z,19.83
2017-12-24T14:02:29.878Z,22.20
2017-12-24T14:05:00.405Z,20.13
2017-12-24T14:07:30.971Z,22.57
2017-12-24T14:10:02.525Z,22.07
2017-12-24T14:12:33.794Z,18.60
2017-12-24T14:15:04.755Z,20.97
2017-12-24T14:17:35.344Z,23.23
2017-12-24T14:20:06.508Z,22.60
2017-12-24T14:22:36.970Z,19.33
2017-12-24T14:25:07.944Z,24.83
2017-12-24T14:27:39.690Z,21.60
2017-12-24T14:30:10.248Z,21.27
2017-12-24T14:32:40.677Z,24.67
2017-12-24T14:35:12.893Z,22.43
2017-12-24T14:37:43.420Z,19.47
2017-12-24T14:40:14.066Z,21.13
2017-12-24T14:42:44.701Z,20.37
2017-12-24T14:45:15.193Z,22.30
2017-12-24T14:47:45.696Z,21.27
2017-12-24T14:50:16.401Z,22.93
2017-12-24T14:52:47.702Z,24.80
2017-12-24T14:55:18.156Z,17.30
2017-12-24T14:57:48.974Z,23.20
2017-12-24T15:00:19.656Z,21.60
2017-12-24T15:02:50.336Z,23.97
2017-12-24T15:05:21.104Z,27.50
2017-12-24T15:07:51.933Z,28.67
2017-12-24T15:10:22.524Z,27.80
2017-12-24T15:12:53.114Z,22.73
2017-12-24T15:15:24.317Z,22.30
2017-12-24T15:17:54.821Z,23.00
2017-12-24T15:20:25.400Z,27.00
2017-12-24T15:22:55.993Z,28.10
2017-12-24T15:25:26.470Z,24.47
2017-12-24T15:27:57.817Z,25.90
2017-12-24T15:30:29.005Z,22.87
2017-12-24T15:32:59.530Z,27.97
2017-12-24T15:35:30.141Z,24.77
2017-12-24T15:38:00.692Z,24.10
2017-12-24T15:40:31.241Z,26.80
2017-12-24T15:43:01.748Z,31.00
2017-12-24T15:45:32.524Z,26.53
2017-12-24T15:48:03.009Z,25.80
2017-12-24T15:50:34.033Z,22.57
2017-12-24T15:53:04.529Z,26.17
2017-12-24T15:55:35.992Z,25.00
2017-12-24T15:58:06.577Z,26.17
2017-12-24T16:00:37.206Z,24.10
2017-12-24T16:03:08.278Z,22.97
2017-12-24T16:05:38.857Z,25.43
2017-12-24T16:08:09.779Z,25.10
2017-12-24T16:10:41.006Z,26.07
2017-12-24T16:13:12.304Z,19.70
2017-12-24T16:15:43.055Z,22.73
2017-12-24T16:18:13.586Z,25.03
2017-12-24T16:20:43.925Z,27.27
2017-12-24T16:25:54.645Z,25.80
2017-12-24T16:28:25.279Z,24.70
2017-12-24T16:30:55.616Z,28.97
2017-12-24T16:33:26.834Z,26.93
2017-12-24T16:35:57.336Z,26.33
2017-12-24T16:38:28.490Z,26.10
2017-12-24T16:40:59.860Z,25.30
2017-12-24T16:56:40.676Z,27.83
2017-12-24T16:59:12.042Z,30.43
2017-12-24T17:01:43.329Z,27.87
2017-12-24T17:04:14.097Z,30.20
2017-12-24T17:06:45.035Z,26.70
2017-12-24T17:09:15.588Z,30.70
2017-12-24T17:11:46.072Z,26.47
2017-12-24T17:14:17.025Z,30.50
2017-12-24T17:16:48.019Z,25.67
2017-12-24T17:19:18.701Z,27.07
2017-12-24T17:21:49.467Z,26.80
2017-12-24T17:24:20.317Z,25.00
2017-12-24T17:26:51.188Z,25.30
2017-12-24T17:29:21.885Z,25.23
2017-12-24T17:31:53.209Z,24.77
2017-12-24T17:34:24.058Z,28.00
2017-12-24T17:36:54.737Z,27.90
2017-12-24T17:39:26.065Z,24.70
2017-12-24T17:41:57.108Z,26.77
2017-12-24T17:57:15.122Z,27.23
2017-12-24T17:59:46.276Z,24.20
2017-12-24T18:02:17.351Z,20.97
2017-12-24T18:04:49.737Z,22.37
2017-12-24T18:07:20.292Z,23.73
2017-12-24T18:09:51.345Z,26.40
2017-12-24T18:12:22.182Z,21.60
2017-12-24T18:14:53.216Z,27.47
2017-12-24T18:17:24.380Z,27.97
2017-12-24T18:19:55.177Z,20.10
2017-12-24T18:22:25.771Z,24.97
2017-12-24T18:24:56.457Z,23.43
2017-12-24T18:27:27.410Z,21.30
2017-12-24T18:29:58.556Z,22.77
2017-12-24T18:32:29.036Z,23.40
2017-12-24T18:34:59.727Z,24.97
2017-12-24T18:37:31.938Z,23.20
2017-12-24T18:40:03.330Z,25.93
2017-12-24T18:42:33.932Z,26.33
2017-12-24T18:45:04.503Z,25.93
2017-12-24T18:47:35.371Z,22.97
2017-12-24T18:50:07.505Z,23.50
2017-12-24T18:52:38.302Z,22.00
2017-12-24T18:55:09.111Z,20.30
2017-12-24T18:57:40.430Z,24.30
2017-12-24T19:00:11.107Z,26.50
2017-12-24T19:02:41.923Z,23.60
2017-12-24T19:05:14.213Z,23.43
2017-12-24T19:07:45.262Z,28.33
2017-12-24T19:10:16.739Z,23.40
2017-12-24T19:12:47.312Z,29.27
2017-12-24T19:15:17.970Z,25.50
2017-12-24T19:17:48.642Z,24.87
2017-12-24T19:20:19.411Z,24.47
2017-12-24T19:22:50.261Z,22.33
2017-12-24T19:25:21.760Z,27.40
2017-12-24T19:27:52.722Z,24.13
2017-12-24T19:30:23.720Z,23.43
2017-12-24T19:32:54.403Z,23.77
2017-12-24T19:35:25.025Z,23.53
2017-12-24T19:37:55.932Z,26.13
2017-12-24T19:40:28.189Z,22.40
2017-12-24T19:42:58.965Z,21.77
2017-12-24T19:45:29.461Z,20.37
2017-12-24T19:48:01.096Z,20.07
2017-12-24T19:50:32.111Z,22.60
2017-12-24T19:53:02.822Z,21.70
2017-12-24T19:55:33.593Z,19.13
2017-12-24T19:58:04.121Z,22.77
2017-12-24T20:00:35.087Z,20.17
2017-12-24T20:03:05.841Z,24.57
2017-12-24T20:05:36.653Z,20.87
2017-12-24T20:08:07.473Z,22.33
2017-12-24T20:10:38.621Z,20.57
2017-12-24T20:13:09.538Z,20.23
2017-12-24T20:15:41.989Z,21.00
2017-12-24T20:18:13.124Z,18.50
2017-12-24T20:20:43.911Z,16.53
2017-12-24T20:23:14.529Z,21.97
2017-12-24T20:25:45.022Z,19.20
2017-12-24T20:28:16.230Z,18.13
2017-12-24T20:30:47.198Z,19.67
2017-12-24T20:33:17.737Z,23.10
2017-12-24T20:35:49.156Z,19.60
2017-12-24T20:38:20.797Z,24.93
2017-12-24T20:40:51.773Z,21.57
2017-12-24T20:43:23.298Z,20.53
2017-12-24T20:45:54.466Z,21.70
2017-12-24T20:48:25.961Z,17.57
2017-12-24T20:50:57.334Z,20.00
2017-12-24T20:53:27.889Z,16.87
2017-12-24T20:55:58.988Z,18.00
2017-12-24T20:58:29.852Z,16.40
2017-12-24T21:01:01.274Z,12.87
2017-12-24T21:03:31.868Z,18.03
2017-12-24T21:06:02.942Z,17.70
2017-12-24T21:08:34.800Z,18.07
2017-12-24T21:11:05.680Z,15.00
2017-12-24T21:13:36.387Z,18.03
2017-12-24T21:16:07.213Z,21.80
2017-12-24T21:18:39.498Z,19.60
2017-12-24T21:21:10.202Z,19.67
2017-12-24T21:23:41.198Z,17.47
2017-12-24T21:26:11.964Z,18.53
2017-12-24T21:28:43.145Z,19.10
2017-12-24T21:31:13.633Z,17.47
2017-12-24T21:33:44.963Z,19.50
2017-12-24T21:36:15.528Z,17.20
2017-12-24T21:38:46.669Z,16.10
2017-12-24T21:41:17.765Z,19.40
2017-12-24T21:43:49.062Z,18.83
2017-12-24T21:46:19.332Z,14.67
2017-12-24T21:48:49.786Z,13.53
2017-12-24T21:51:20.053Z,17.13
2017-12-24T21:53:50.913Z,17.43
2017-12-24T21:56:21.183Z,16.90
2017-12-24T21:58:51.845Z,14.90
2017-12-24T22:01:23.381Z,17.07
2017-12-24T22:03:53.995Z,16.80
2017-12-24T22:06:33.125Z,18.60
2017-12-24T22:09:06.980Z,17.80
2017-12-24T22:11:37.456Z,18.03
2017-12-24T22:14:09.029Z,15.77
2017-12-24T22:16:39.471Z,20.20
2017-12-24T22:19:09.684Z,17.70
2017-12-24T22:21:40.501Z,14.83
2017-12-24T22:24:11.775Z,15.80
2017-12-24T22:26:42.124Z,15.50
2017-12-24T22:29:12.604Z,15.83
2017-12-24T22:31:43.301Z,15.90
2017-12-24T22:34:13.727Z,15.60
2017-12-24T22:36:44.130Z,15.07
2017-12-24T22:39:14.469Z,19.57
2017-12-24T22:41:45.097Z,18.53
2017-12-24T22:44:15.812Z,20.40
2017-12-24T22:48:17.355Z,18.80
2017-12-24T22:50:48.039Z,15.10
2017-12-24T22:53:18.642Z,15.63
2017-12-24T22:55:48.979Z,20.83
2017-12-24T22:58:19.446Z,19.57
2017-12-24T23:00:50.492Z,16.90
2017-12-24T23:03:20.963Z,15.57
2017-12-24T23:05:51.496Z,18.73
2017-12-24T23:08:21.778Z,18.67
2017-12-24T23:10:52.014Z,13.53
2017-12-24T23:13:22.504Z,19.07
2017-12-24T23:15:52.741Z,18.57
2017-12-24T23:18:23.748Z,17.87
2017-12-24T23:20:54.526Z,17.37
2017-12-24T23:23:25.170Z,16.07
2017-12-24T23:25:56.012Z,15.00
2017-12-24T23:28:26.376Z,17.47
2017-12-24T23:30:56.664Z,16.67
2017-12-24T23:33:27.929Z,12.37
2017-12-24T23:35:58.157Z,12.73
2017-12-24T23:38:28.366Z,15.13
2017-12-24T23:40:58.909Z,18.00
2017-12-24T23:43:29.245Z,14.90
2017-12-24T23:46:00.427Z,11.93
2017-12-24T23:48:31.163Z,11.87
2017-12-24T23:51:01.381Z,13.67
2017-12-24T23:53:31.833Z,13.17
2017-12-24T23:56:02.088Z,15.93
2017-12-24T23:58:32.825Z,13.37
